Time,TemperatureF,DewpointF,PressureIn,WindDirection,WindDirectionDegrees,WindSpeedMPH,WindSpeedGustMPH,Humidity,HourlyPrecipIn,Conditions,Clouds,dailyrainin,SoftwareType,DateUTC
2013-03-17 00:03:00,29.0,28.0,-100.00,NW,310,2.0,4.0,96,0.00,,,-99.99,,2013-03-17 04:03:00,
2013-03-17 00:13:00,29.0,28.0,-100.00,NW,325,1.0,5.0,96,0.00,,,-99.99,,2013-03-17 04:13:00,
2013-03-17 00:23:00,29.0,28.0,-100.00,NW,315,2.0,3.0,95,0.00,,,-99.99,,2013-03-17 04:23:00,
2013-03-17 00:33:00,29.0,28.0,-100.00,NW,315,0.0,3.0,95,0.00,,,-99.99,,2013-03-17 04:33:00,
2013-03-17 00:43:00,29.0,28.0,-100.00,West,270,1.0,3.0,95,0.00,,,-99.99,,2013-03-17 04:43:00,
2013-03-17 00:53:00,29.0,28.0,-100.00,WNW,295,0.0,2.0,95,0.00,,,-99.99,,2013-03-17 04:53:00,
2013-03-17 01:03:00,29.0,28.0,-100.00,WNW,290,1.0,2.0,95,0.00,,,-99.99,,2013-03-17 05:03:00,
2013-03-17 01:12:00,29.0,28.0,-100.00,WNW,285,0.0,1.0,95,0.00,,,-99.99,,2013-03-17 05:12:00,
2013-03-17 01:22:00,29.0,28.0,-100.00,West,265,1.0,2.0,95,0.00,,,-99.99,,2013-03-17 05:22:00,
2013-03-17 01:32:00,29.0,28.0,-100.00,WNW,285,1.0,2.0,95,0.00,,,-99.99,,2013-03-17 05:32:00,
2013-03-17 01:42:00,29.0,28.0,-100.00,SSW,205,0.0,2.0,95,0.00,,,-99.99,,2013-03-17 05:42:00,
2013-03-17 01:52:00,29.0,28.0,-100.00,West,275,2.0,4.0,95,0.00,,,-99.99,,2013-03-17 05:52:00,
2013-03-17 02:02:00,29.0,28.0,-100.00,SW,220,1.0,2.0,95,0.00,,,-99.99,,2013-03-17 06:02:00,
2013-03-17 02:12:00,29.0,28.0,-100.00,SW,230,0.0,3.0,95,0.00,,,-99.99,,2013-03-17 06:12:00,
2013-03-17 02:22:00,29.0,28.0,-100.00,SSW,195,2.0,2.0,95,0.00,,,-99.99,,2013-03-17 06:22:00,
2013-03-17 02:32:00,29.0,28.0,-100.00,SSW,210,1.0,3.0,95,0.00,,,-99.99,,2013-03-17 06:32:00,
2013-03-17 02:42:00,29.0,28.0,-100.00,SW,225,1.0,2.0,95,0.00,,,-99.99,,2013-03-17 06:42:00,
2013-03-17 02:52:00,29.0,28.0,-100.00,SW,220,2.0,5.0,95,0.00,,,-99.99,,2013-03-17 06:52:00,
2013-03-17 03:02:00,29.0,28.0,-100.00,SW,230,2.0,4.0,95,0.00,,,-99.99,,2013-03-17 07:02:00,
2013-03-17 03:12:00,29.0,28.0,-100.00,SW,225,2.0,4.0,95,0.00,,,-99.99,,2013-03-17 07:12:00,
2013-03-17 03:22:00,29.0,28.0,-100.00,SW,225,2.0,4.0,95,0.00,,,-99.99,,2013-03-17 07:22:00,
2013-03-17 03:32:00,29.0,28.0,-100.00,WSW,240,4.0,6.0,95,0.00,,,-99.99,,2013-03-17 07:32:00,
2013-03-17 03:42:00,29.0,28.0,-100.00,WSW,255,3.0,6.0,95,0.00,,,-99.99,,2013-03-17 07:42:00,
2013-03-17 03:52:00,29.0,28.0,-100.00,WSW,240,2.0,4.0,95,0.00,,,-99.99,,2013-03-17 07:52:00,
2013-03-17 04:03:00,29.0,28.0,-100.00,SW,235,2.0,4.0,95,0.00,,,-99.99,,2013-03-17 08:03:00,
2013-03-17 04:13:00,29.0,28.0,-100.00,SW,230,4.0,6.0,95,0.00,,,-99.99,,2013-03-17 08:13:00,
2013-03-17 04:22:00,29.0,28.0,-100.00,SW,225,2.0,6.0,95,0.00,,,-99.99,,2013-03-17 08:22:00,
2013-03-17 04:33:00,29.0,28.0,-100.00,WSW,245,2.0,4.0,95,0.00,,,-99.99,,2013-03-17 08:33:00,
2013-03-17 04:42:00,29.0,28.0,-100.00,West,275,4.0,6.0,95,0.00,,,-99.99,,2013-03-17 08:42:00,
2013-03-17 04:52:00,29.0,28.0,-100.00,SW,235,3.0,6.0,95,0.00,,,-99.99,,2013-03-17 08:52:00,
2013-03-17 05:03:00,29.0,28.0,-100.00,West,260,3.0,6.0,95,0.00,,,-99.99,,2013-03-17 09:03:00,
2013-03-17 05:12:00,30.0,29.0,-100.00,West,280,2.0,6.0,95,0.00,,,-99.99,,2013-03-17 09:12:00,
2013-03-17 05:22:00,30.0,29.0,-100.00,WSW,255,4.0,9.0,95,0.00,,,-99.99,,2013-03-17 09:22:00,
2013-03-17 05:32:00,30.0,29.0,-100.00,West,270,4.0,9.0,95,0.00,,,-99.99,,2013-03-17 09:32:00,
2013-03-17 05:43:00,29.0,28.0,-100.00,WNW,290,7.0,10.0,95,0.00,,,-99.99,,2013-03-17 09:43:00,
2013-03-17 05:53:00,29.0,28.0,-100.00,WNW,300,6.0,11.0,95,0.00,,,-99.99,,2013-03-17 09:53:00,
2013-03-17 06:03:00,29.0,28.0,-100.00,WNW,300,3.0,6.0,95,0.00,,,-99.99,,2013-03-17 10:03:00,
2013-03-17 06:13:00,29.0,28.0,-100.00,NW,305,2.0,8.0,95,0.00,,,-99.99,,2013-03-17 10:13:00,
2013-03-17 06:23:00,29.0,28.0,-100.00,WNW,290,2.0,6.0,95,0.00,,,-99.99,,2013-03-17 10:23:00,
2013-03-17 06:33:00,29.0,28.0,-100.00,NW,320,6.0,7.0,95,0.00,,,-99.99,,2013-03-17 10:33:00,
2013-03-17 06:42:00,29.0,28.0,-100.00,NNW,345,3.0,6.0,95,0.00,,,-99.99,,2013-03-17 10:42:00,
2013-03-17 06:52:00,29.0,28.0,-100.00,WNW,300,2.0,4.0,95,0.00,,,-99.99,,2013-03-17 10:52:00,
2013-03-17 07:02:00,29.0,28.0,-100.00,NW,305,2.0,4.0,95,0.00,,,-99.99,,2013-03-17 11:02:00,
2013-03-17 07:12:00,29.0,28.0,-100.00,WSW,250,1.0,4.0,95,0.00,,,-99.99,,2013-03-17 11:12:00,
2013-03-17 07:22:00,29.0,28.0,-100.00,SW,225,1.0,3.0,95,0.00,,,-99.99,,2013-03-17 11:22:00,
2013-03-17 07:32:00,29.0,28.0,-100.00,West,275,1.0,5.0,95,0.00,,,-99.99,,2013-03-17 11:32:00,
2013-03-17 07:42:00,29.0,28.0,-100.00,NW,305,2.0,3.0,95,0.00,,,-99.99,,2013-03-17 11:42:00,
2013-03-17 07:52:00,29.0,28.0,-100.00,WNW,300,1.0,3.0,95,0.00,,,-99.99,,2013-03-17 11:52:00,
2013-03-17 08:02:00,29.0,28.0,-100.00,WNW,300,1.0,4.0,95,0.00,,,-99.99,,2013-03-17 12:02:00,
2013-03-17 08:12:00,29.0,28.0,-100.00,WNW,295,4.0,7.0,95,0.00,,,-99.99,,2013-03-17 12:12:00,
2013-03-17 08:22:00,29.0,28.0,-100.00,NNW,340,6.0,9.0,94,0.00,,,-99.99,,2013-03-17 12:22:00,
2013-03-17 08:33:00,29.0,28.0,-100.00,NW,315,5.0,11.0,94,0.00,,,-99.99,,2013-03-17 12:33:00,
2013-03-17 08:43:00,29.0,28.0,-100.00,NNW,335,8.0,12.0,93,0.00,,,-99.99,,2013-03-17 12:43:00,
2013-03-17 08:52:00,29.0,28.0,-100.00,NNW,330,7.0,10.0,92,0.00,,,-99.99,,2013-03-17 12:52:00,
2013-03-17 09:02:00,29.0,28.0,-100.00,NNW,335,7.0,13.0,92,0.00,,,-99.99,,2013-03-17 13:02:00,
2013-03-17 09:12:00,30.0,28.0,-100.00,North,350,6.0,9.0,91,0.00,,,-99.99,,2013-03-17 13:12:00,
2013-03-17 09:22:00,29.0,27.0,-100.00,North,0,9.0,17.0,92,0.00,,,-99.99,,2013-03-17 13:22:00,
2013-03-17 09:32:00,29.0,28.0,-100.00,North,350,7.0,12.0,92,0.00,,,-99.99,,2013-03-17 13:32:00,
2013-03-17 09:42:00,30.0,28.0,-100.00,NNW,335,4.0,11.0,92,0.00,,,-99.99,,2013-03-17 13:42:00,
2013-03-17 09:52:00,30.0,28.0,-100.00,North,350,6.0,9.0,92,0.00,,,-99.99,,2013-03-17 13:52:00,
2013-03-17 10:02:00,29.0,28.0,-100.00,NNW,335,9.0,12.0,92,0.00,,,-99.99,,2013-03-17 14:02:00,
2013-03-17 10:12:00,29.0,27.0,-100.00,North,0,10.0,14.0,92,0.00,,,-99.99,,2013-03-17 14:12:00,
2013-03-17 10:22:00,29.0,27.0,-100.00,NNW,345,6.0,11.0,92,0.00,,,-99.99,,2013-03-17 14:22:00,
2013-03-17 10:33:00,29.0,27.0,-100.00,NNW,345,7.0,10.0,92,0.00,,,-99.99,,2013-03-17 14:33:00,
2013-03-17 10:42:00,29.0,26.0,-100.00,North,0,6.0,12.0,90,0.00,,,-99.99,,2013-03-17 14:42:00,
2013-03-17 10:52:00,29.0,26.0,-100.00,NNW,345,7.0,10.0,87,0.00,,,-99.99,,2013-03-17 14:52:00,
2013-03-17 11:02:00,29.0,25.0,-100.00,NNW,340,9.0,12.0,85,0.00,,,-99.99,,2013-03-17 15:02:00,
2013-03-17 11:12:00,29.0,24.0,-100.00,NNW,345,7.0,12.0,83,0.00,,,-99.99,,2013-03-17 15:12:00,
2013-03-17 11:23:00,29.0,23.0,-100.00,North,0,8.0,13.0,79,0.00,,,-99.99,,2013-03-17 15:23:00,
2013-03-17 11:33:00,29.0,23.0,-100.00,North,0,7.0,10.0,76,0.00,,,-99.99,,2013-03-17 15:33:00,
2013-03-17 11:43:00,30.0,22.0,-100.00,North,5,7.0,12.0,74,0.00,,,-99.99,,2013-03-17 15:43:00,
2013-03-17 11:52:00,30.0,23.0,-100.00,North,0,5.0,12.0,75,0.00,,,-99.99,,2013-03-17 15:52:00,
2013-03-17 12:03:00,31.0,24.0,-100.00,North,0,5.0,13.0,77,0.00,,,-99.99,,2013-03-17 16:03:00,
2013-03-17 12:12:00,31.0,24.0,-100.00,NNW,345,12.0,16.0,76,0.00,,,-99.99,,2013-03-17 16:12:00,
2013-03-17 12:23:00,31.0,24.0,-100.00,NNW,330,9.0,13.0,76,0.00,,,-99.99,,2013-03-17 16:23:00,
2013-03-17 12:33:00,30.0,24.0,-100.00,North,0,6.0,12.0,77,0.00,,,-99.99,,2013-03-17 16:33:00,
2013-03-17 12:42:00,30.0,25.0,-100.00,NNW,335,9.0,13.0,80,0.00,,,-99.99,,2013-03-17 16:42:00,
2013-03-17 12:52:00,31.0,26.0,-100.00,NNW,345,7.0,12.0,80,0.00,,,-99.99,,2013-03-17 16:52:00,
2013-03-17 13:02:00,32.0,26.0,-100.00,NNW,345,6.0,12.0,79,0.00,,,-99.99,,2013-03-17 17:02:00,
2013-03-17 13:12:00,32.0,26.0,-100.00,NNW,340,7.0,13.0,79,0.00,,,-99.99,,2013-03-17 17:12:00,
2013-03-17 13:22:00,32.0,25.0,-100.00,North,0,8.0,12.0,77,0.00,,,-99.99,,2013-03-17 17:22:00,
2013-03-17 13:33:00,32.0,25.0,-100.00,North,355,8.0,12.0,75,0.00,,,-99.99,,2013-03-17 17:33:00,
2013-03-17 13:42:00,33.0,26.0,-100.00,North,0,4.0,12.0,74,0.00,,,-99.99,,2013-03-17 17:42:00,
2013-03-17 13:52:00,32.0,25.0,-100.00,North,0,8.0,12.0,74,0.00,,,-99.99,,2013-03-17 17:52:00,
2013-03-17 14:02:00,32.0,25.0,-100.00,North,350,7.0,12.0,74,0.00,,,-99.99,,2013-03-17 18:02:00,
2013-03-17 14:12:00,33.0,26.0,-100.00,NNE,25,2.0,9.0,74,0.00,,,-99.99,,2013-03-17 18:12:00,
2013-03-17 14:22:00,33.0,26.0,-100.00,North,0,4.0,9.0,73,0.00,,,-99.99,,2013-03-17 18:22:00,
2013-03-17 14:32:00,33.0,25.0,-100.00,NNE,20,2.0,12.0,72,0.00,,,-99.99,,2013-03-17 18:32:00,
2013-03-17 14:42:00,33.0,25.0,-100.00,NNE,20,2.0,12.0,72,0.00,,,-99.99,,2013-03-17 18:42:00,
2013-03-17 14:52:00,33.0,25.0,-100.00,NNE,20,2.0,12.0,72,0.00,,,-99.99,,2013-03-17 18:52:00,
2013-03-17 15:02:00,33.0,24.0,-100.00,North,0,4.0,7.0,70,0.00,,,-99.99,,2013-03-17 19:02:00,
2013-03-17 15:12:00,33.0,25.0,-100.00,North,0,3.0,9.0,70,0.00,,,-99.99,,2013-03-17 19:12:00,
2013-03-17 15:23:00,34.0,25.0,-100.00,North,0,6.0,12.0,68,0.00,,,-99.99,,2013-03-17 19:23:00,
2013-03-17 15:33:00,33.0,24.0,-100.00,North,5,1.0,9.0,67,0.00,,,-99.99,,2013-03-17 19:33:00,
2013-03-17 15:42:00,33.0,24.0,-100.00,NW,325,6.0,9.0,67,0.00,,,-99.99,,2013-03-17 19:42:00,
2013-03-17 15:53:00,33.0,24.0,-100.00,NW,325,6.0,9.0,67,0.00,,,-99.99,,2013-03-17 19:53:00,
2013-03-17 16:02:00,33.0,24.0,-100.00,North,0,5.0,9.0,67,0.00,,,-99.99,,2013-03-17 20:02:00,
2013-03-17 16:12:00,33.0,24.0,-100.00,North,355,3.0,9.0,67,0.00,,,-99.99,,2013-03-17 20:12:00,
2013-03-17 16:22:00,33.0,24.0,-100.00,North,0,2.0,10.0,67,0.00,,,-99.99,,2013-03-17 20:22:00,
2013-03-17 16:33:00,33.0,24.0,-100.00,ENE,60,4.0,9.0,67,0.00,,,-99.99,,2013-03-17 20:33:00,
2013-03-17 16:42:00,33.0,24.0,-100.00,North,0,3.0,8.0,67,0.00,,,-99.99,,2013-03-17 20:42:00,
2013-03-17 16:52:00,34.0,24.0,-100.00,North,0,3.0,9.0,66,0.00,,,-99.99,,2013-03-17 20:52:00,
2013-03-17 17:03:00,33.0,23.0,-100.00,North,0,5.0,9.0,65,0.00,,,-99.99,,2013-03-17 21:03:00,
2013-03-17 17:12:00,34.0,24.0,-100.00,NE,45,4.0,9.0,65,0.00,,,-99.99,,2013-03-17 21:12:00,
2013-03-17 17:22:00,33.0,23.0,-100.00,NNW,340,4.0,9.0,65,0.00,,,-99.99,,2013-03-17 21:22:00,
2013-03-17 17:33:00,33.0,23.0,-100.00,ENE,60,4.0,6.0,65,0.00,,,-99.99,,2013-03-17 21:33:00,
2013-03-17 17:43:00,33.0,23.0,-100.00,ENE,60,4.0,6.0,65,0.00,,,-99.99,,2013-03-17 21:43:00,
2013-03-17 17:52:00,33.0,23.0,-100.00,North,0,6.0,10.0,67,0.00,,,-99.99,,2013-03-17 21:52:00,
2013-03-17 18:03:00,33.0,23.0,-100.00,NE,55,1.0,9.0,66,0.00,,,-99.99,,2013-03-17 22:03:00,
2013-03-17 18:12:00,33.0,23.0,-100.00,NE,55,1.0,9.0,66,0.00,,,-99.99,,2013-03-17 22:12:00,
2013-03-17 18:23:00,33.0,23.0,-100.00,NE,50,4.0,7.0,66,0.00,,,-99.99,,2013-03-17 22:23:00,
2013-03-17 18:33:00,32.0,23.0,-100.00,North,0,2.0,8.0,67,0.00,,,-99.99,,2013-03-17 22:33:00,
2013-03-17 18:42:00,32.0,23.0,-100.00,North,0,2.0,7.0,67,0.00,,,-99.99,,2013-03-17 22:42:00,
2013-03-17 18:53:00,32.0,23.0,-100.00,ENE,60,1.0,7.0,67,0.00,,,-99.99,,2013-03-17 22:53:00,
2013-03-17 19:03:00,32.0,22.0,-100.00,North,0,2.0,6.0,67,0.00,,,-99.99,,2013-03-17 23:03:00,
2013-03-17 19:12:00,32.0,23.0,-100.00,ENE,70,2.0,8.0,68,0.00,,,-99.99,,2013-03-17 23:12:00,
2013-03-17 19:22:00,31.0,23.0,-100.00,North,0,2.0,6.0,69,0.00,,,-99.99,,2013-03-17 23:22:00,
2013-03-17 19:33:00,31.0,22.0,-100.00,North,0,1.0,7.0,71,0.00,,,-99.99,,2013-03-17 23:33:00,
2013-03-17 19:42:00,30.0,22.0,-100.00,North,0,4.0,7.0,72,0.00,,,-99.99,,2013-03-17 23:42:00,
2013-03-17 19:52:00,30.0,22.0,-100.00,North,0,2.0,4.0,73,0.00,,,-99.99,,2013-03-17 23:52:00,
2013-03-17 20:03:00,29.0,22.0,-100.00,East,80,0.0,6.0,75,0.00,,,-99.99,,2013-03-18 00:03:00,
2013-03-17 20:12:00,29.0,22.0,-100.00,East,95,1.0,4.0,76,0.00,,,-99.99,,2013-03-18 00:12:00,
2013-03-17 20:22:00,28.0,22.0,-100.00,East,95,1.0,3.0,77,0.00,,,-99.99,,2013-03-18 00:22:00,
2013-03-17 20:33:00,28.0,22.0,-100.00,NE,40,1.0,4.0,78,0.00,,,-99.99,,2013-03-18 00:33:00,
2013-03-17 20:42:00,29.0,22.0,-100.00,NE,55,4.0,6.0,76,0.00,,,-99.99,,2013-03-18 00:42:00,
2013-03-17 20:52:00,29.0,22.0,-100.00,NE,55,4.0,7.0,75,0.00,,,-99.99,,2013-03-18 00:52:00,
2013-03-17 21:02:00,29.0,22.0,-100.00,ENE,65,4.0,6.0,75,0.00,,,-99.99,,2013-03-18 01:02:00,
2013-03-17 21:12:00,29.0,22.0,-100.00,NE,50,3.0,6.0,75,0.00,,,-99.99,,2013-03-18 01:12:00,
2013-03-17 21:22:00,28.0,21.0,-100.00,NE,55,2.0,4.0,75,0.00,,,-99.99,,2013-03-18 01:22:00,
2013-03-17 21:32:00,28.0,21.0,-100.00,NE,45,3.0,4.0,76,0.00,,,-99.99,,2013-03-18 01:32:00,
2013-03-17 21:42:00,28.0,21.0,-100.00,ENE,60,2.0,5.0,77,0.00,,,-99.99,,2013-03-18 01:42:00,
2013-03-17 21:52:00,27.0,22.0,-100.00,NE,55,2.0,6.0,78,0.00,,,-99.99,,2013-03-18 01:52:00,
2013-03-17 22:02:00,27.0,22.0,-100.00,NE,55,1.0,5.0,78,0.00,,,-99.99,,2013-03-18 02:02:00,
2013-03-17 22:12:00,27.0,22.0,-100.00,NE,40,2.0,5.0,79,0.00,,,-99.99,,2013-03-18 02:12:00,
2013-03-17 22:22:00,27.0,22.0,-100.00,NE,40,2.0,6.0,79,0.00,,,-99.99,,2013-03-18 02:22:00,
2013-03-17 22:32:00,27.0,21.0,-100.00,ENE,75,0.0,4.0,80,0.00,,,-99.99,,2013-03-18 02:32:00,
2013-03-17 22:42:00,26.0,21.0,-100.00,NE,55,1.0,5.0,80,0.00,,,-99.99,,2013-03-18 02:42:00,
2013-03-17 22:52:00,26.0,21.0,-100.00,ENE,60,1.0,6.0,80,0.00,,,-99.99,,2013-03-18 02:52:00,
2013-03-17 23:03:00,27.0,22.0,-100.00,NE,55,4.0,9.0,80,0.00,,,-99.99,,2013-03-18 03:03:00,
2013-03-17 23:11:00,26.0,21.0,-100.00,NE,55,4.0,7.0,80,0.00,,,-99.99,,2013-03-18 03:11:00,
2013-03-17 23:22:00,27.0,21.0,-100.00,NE,55,4.0,9.0,80,0.00,,,-99.99,,2013-03-18 03:22:00,
2013-03-17 23:33:00,26.0,21.0,-100.00,ENE,60,3.0,7.0,80,0.00,,,-99.99,,2013-03-18 03:33:00,
2013-03-17 23:42:00,26.0,21.0,-100.00,ENE,60,3.0,7.0,80,0.00,,,-99.99,,2013-03-18 03:42:00,
2013-03-17 23:53:00,26.0,21.0,-100.00,ENE,60,2.0,9.0,80,0.00,,,-99.99,,2013-03-18 03:53:00,